Iron Mountain, MI

3:09 AM CDT on July 25, 2014 (GMT -0500)
Ford (KIMT) Elev 1181 ft | 45.82 °N, 88.11 °W | Change Station

Current weather conditions updated 15 minutes ago

Clear
Clear
60 °F
Feels Like 60 °F
N
4
Wind Variable Wind from ESE

Today is forecast to be nearly the same temperature as yesterday. Thundershowers.

Today
High -- | Low -- °F
--% Chance of Precip.
Yesterday
High -- | Low -- °F
Precip. -- in
5:27 AM 8:29 PM
Waning Crescent, 2% visible
Pressure 29.95 in
Visibility 10.0 miles
Clouds Clear
Dew Point 54 °F
Humidity 80%
Rainfall 0.00 in
Snow Depth Not available.
UV 0 out of 12
Pollen 6.00 out of 12
Air Quality Not available.
Flu Activity Not available.
METAR KIMT 250754Z AUTO 11003KT 10SM CLR 16/12 A2996 RMK AO2 SLP142 T01560122

More Conditions Fewer Conditions

Pressure 29.95 in
Visibility 10.0 miles
Clouds Clear
Dew Point 54 °F
Humidity 80%
Rainfall 0.00 in
Snow Depth Not available.
UV 0 out of 12
Pollen 6.00 out of 12
Air Quality Not available.
Flu Activity Not available.
METAR KIMT 250754Z AUTO 11003KT 10SM CLR 16/12 A2996 RMK AO2 SLP142 T01560122

More Conditions Fewer Conditions

10-Day Weather Forecast

Almanac

Astronomy

Jul. 25, 2014 Rise Set
Actual Time 5:27 AM CDT 8:29 PM CDT
Civil Twilight 4:51 AM CDT 9:04 PM CDT
Nautical Twilight 4:06 AM CDT 9:50 PM CDT
Astronomical Twilight 3:11 AM CDT 10:44 PM CDT
Moon 4:28 AM CDT 7:23 PM CDT
Length of Visible Light 16h 13m
Length of Day
15h 02m
Tomorrow will be 2m 13s shorter.
Waning Crescent, 2% of the Moon is Illuminated
Today
Waning Crescent
Jul 26
New
Aug 3
First Quarter
Aug 10
Full
Aug 17
Last Quarter

Today's Extremes

State Highs State Lows

Community

WunderPhotos

Upload Photos

1,737,273 photos uploaded!

Nearby

Snow Depth

Station Depth Elevation
No new snow has been reported.

Earthquake Activity

City Distance Mag. Time & Date
No recent earthquake activity has been reported nearby.
Minimum magnitude displayed is 2.5.

Coastal Water Temperatures

Place Temperature
No Stations Reporting

Nearby Weather Stations

Station Location Temp. Dew Point Humidity Wind Precip. Elev Updated Type
Spread Eagle Skies, Florence, WI 56.7 °F 55 °F 95% ESE  at  0.0 mph 0.00 in / hr 1224 ft 3:08 AM CDT Rapid Fire
Norway, MI 58.3 °F 53 °F 83% SW  at  0.0 mph 0.00 in / hr 1010 ft 3:01 AM CDT Normal
Downtown, Norway, MI 59.4 °F 53 °F 79% SSE  at  2.3 mph 0.00 in / hr 942 ft 3:09 AM CDT Rapid Fire
Wiggins Lake, Pembine, WI 56.5 °F 53 °F 88% West  at  0.0 mph 0.00 in / hr 997 ft 3:09 AM CDT Rapid Fire

Show More Stations Show Fewer Stations